This is the latest recevied weather packets stored in our database for station/object KR4ELZ. If no packets are shown the sender has not sent any weather packets the latest 10 day(s).
| Time | Temp. | Humidity | Pressure | Rain* | Wind** | Luminosity | Snow |
|---|---|---|---|---|---|---|---|
| 1788113293 | 34.44° C | 56% | 1018.8 hPa | 0 mm | - | 183 W/m² | - |
| 1788112988 | 33.89° C | 57% | 1018.8 hPa | 0 mm | - | 722 W/m² | - |
| 1788112687 | 33.33° C | 61% | 1018.9 hPa | 0 mm | - | 721 W/m² | - |
| 1788112382 | 34.44° C | 58% | 1019.1 hPa | 0 mm | - | 731 W/m² | - |
| 1788112082 | 33.89° C | 59% | 1019 hPa | 0 mm | - | 729 W/m² | - |
| 1788111778 | 32.78° C | 61% | 1019.1 hPa | 0 mm | - | 743 W/m² | - |
| 1788111477 | 32.78° C | 63% | 1019 hPa | 0 mm | - | 126 W/m² | - |
| 1788111173 | 33.89° C | 59% | 1019.2 hPa | 0 mm | - | 726 W/m² | - |
| 1788110869 | 33.89° C | 60% | 1019.3 hPa | 0 mm | - | 752 W/m² | - |
| 1788110566 | 33.33° C | 61% | 1019.4 hPa | 0 mm | - | 707 W/m² | - |
| 1788110261 | 34.44° C | 58% | 1019.4 hPa | 0 mm | - | 737 W/m² | - |
| 1788109956 | 33.33° C | 60% | 1019.5 hPa | 0 mm | - | 730 W/m² | - |
| 1788109651 | 33.89° C | 59% | 1019.5 hPa | 0 mm | - | 719 W/m² | - |
| 1788109350 | 33.33° C | 61% | 1019.4 hPa | 0 mm | - | 701 W/m² | - |
| 1788109049 | 32.22° C | 65% | 1019.4 hPa | 0 mm | - | 721 W/m² | - |
| 1788108745 | 32.78° C | 64% | 1019.4 hPa | 0 mm | - | 744 W/m² | - |
| 1788108441 | 32.78° C | 63% | 1019.8 hPa | 0 mm | - | 731 W/m² | - |
| 1788108137 | 32.22° C | 64% | 1019.7 hPa | 0 mm | - | 162 W/m² | - |
| 1788107834 | 33.33° C | 62% | 1019.5 hPa | 0 mm | - | 697 W/m² | - |
| 1788107529 | 32.22° C | 64% | 1019.5 hPa | 0 mm | - | 674 W/m² | - |
| 1788107224 | 31.67° C | 66% | 1019.4 hPa | 0 mm | - | 677 W/m² | - |
| 1788106919 | 31.11° C | 68% | 1019.5 hPa | 0 mm | - | 661 W/m² | - |
| 1788106614 | 31.11° C | 69% | 1019.8 hPa | 0 mm | - | 158 W/m² | - |
| 1788106309 | 31.11° C | 68% | 1019.8 hPa | 0 mm | - | 179 W/m² | - |
| 1788106006 | 31.11° C | 68% | 1019.8 hPa | 0 mm | - | 622 W/m² | - |
* Rain latest hour (hover to see other rain measurements)
** Current wind speed in m/s (hover to see current wind gust speed)